createdAt,value
2022-09-16T00:00:57.388Z,18.45
2022-09-16T00:02:12.899Z,18.68
2022-09-16T00:03:17.794Z,18.65
2022-09-16T00:04:19.670Z,18.26
2022-09-16T00:05:22.088Z,17.79
2022-09-16T00:06:27.423Z,17.30
2022-09-16T00:07:30.333Z,16.86
2022-09-16T00:08:32.265Z,16.49
2022-09-16T00:09:34.163Z,16.16
2022-09-16T00:10:36.157Z,16.05
2022-09-16T00:11:37.871Z,16.31
2022-09-16T00:12:40.592Z,16.76
2022-09-16T00:13:42.342Z,17.22
2022-09-16T00:14:44.129Z,17.61
2022-09-16T00:15:49.182Z,17.95
2022-09-16T00:16:50.852Z,18.24
2022-09-16T00:17:52.613Z,18.45
2022-09-16T00:18:59.873Z,18.62
2022-09-16T00:20:01.905Z,18.65
2022-09-16T00:21:09.225Z,18.31
2022-09-16T00:22:10.989Z,17.77
2022-09-16T00:23:12.683Z,17.29
2022-09-16T00:24:16.314Z,16.84
2022-09-16T00:25:18.204Z,16.42
2022-09-16T00:26:20.062Z,16.08
2022-09-16T00:27:21.751Z,15.83
2022-09-16T00:28:24.736Z,15.94
2022-09-16T00:29:26.577Z,16.34
2022-09-16T00:30:28.207Z,16.79
2022-09-16T00:31:29.950Z,17.17
2022-09-16T00:32:31.869Z,17.50
2022-09-16T00:33:33.552Z,17.76
2022-09-16T00:34:35.252Z,18.00
2022-09-16T00:35:36.886Z,18.20
2022-09-16T00:36:38.523Z,18.37
2022-09-16T00:37:40.145Z,18.50
2022-09-16T00:38:42.625Z,18.37
2022-09-16T00:39:44.564Z,17.95
2022-09-16T00:40:49.587Z,17.47
2022-09-16T00:41:51.407Z,16.98
2022-09-16T00:42:53.081Z,16.54
2022-09-16T00:44:01.893Z,16.14
2022-09-16T00:45:14.153Z,15.76
2022-09-16T00:46:20.659Z,15.52
2022-09-16T00:47:47.334Z,15.74
2022-09-16T00:48:50.317Z,16.33
2022-09-16T00:49:59.384Z,16.77
2022-09-16T00:51:08.028Z,17.16
2022-09-16T00:52:10.391Z,17.44
2022-09-16T00:53:23.120Z,17.64
2022-09-16T00:54:26.857Z,17.82
2022-09-16T00:55:35.465Z,17.99
2022-09-16T00:56:43.290Z,18.14
2022-09-16T00:57:46.708Z,18.28
2022-09-16T00:58:55.227Z,18.27
2022-09-16T00:59:58.503Z,17.89
2022-09-16T01:01:01.112Z,17.40
2022-09-16T01:02:15.981Z,16.90
2022-09-16T01:03:18.974Z,16.37
2022-09-16T01:04:35.310Z,15.99
2022-09-16T01:05:38.749Z,15.61
2022-09-16T01:06:40.815Z,15.67
2022-09-16T01:07:45.959Z,16.02
2022-09-16T01:08:50.134Z,16.46
2022-09-16T01:09:51.795Z,16.89
2022-09-16T01:10:53.568Z,17.23
2022-09-16T01:11:55.283Z,17.53
2022-09-16T01:13:03.454Z,17.75
2022-09-16T01:14:25.167Z,17.97
2022-09-16T01:15:33.982Z,18.17
2022-09-16T01:16:45.049Z,18.30
2022-09-16T01:18:05.210Z,18.33
2022-09-16T01:19:20.824Z,17.92
2022-09-16T01:21:01.887Z,17.31
2022-09-16T01:22:20.724Z,16.53
2022-09-16T01:23:37.188Z,16.03
2022-09-16T01:24:54.457Z,15.79
2022-09-16T01:26:28.993Z,16.12
2022-09-16T01:28:07.691Z,16.75
2022-09-16T01:29:35.878Z,17.28
2022-09-16T01:30:41.090Z,17.62
2022-09-16T01:32:13.087Z,17.84
2022-09-16T01:33:31.603Z,18.03
2022-09-16T01:35:04.752Z,18.13
2022-09-16T01:36:15.410Z,18.25
2022-09-16T01:37:46.102Z,17.95
2022-09-16T01:39:03.233Z,17.26
2022-09-16T01:40:20.149Z,16.63
2022-09-16T01:42:09.579Z,16.08
2022-09-16T01:43:13.818Z,15.54
2022-09-16T01:44:28.926Z,15.72
2022-09-16T01:45:38.252Z,16.20
2022-09-16T01:46:48.357Z,16.65
2022-09-16T01:48:05.527Z,17.04
2022-09-16T01:49:20.375Z,17.42
2022-09-16T01:50:29.387Z,17.70
2022-09-16T01:51:49.602Z,17.88
2022-09-16T01:53:00.115Z,18.06
2022-09-16T01:54:15.921Z,18.19
2022-09-16T01:55:32.583Z,18.05
2022-09-16T01:56:50.305Z,17.50
2022-09-16T01:58:16.963Z,16.87
2022-09-16T01:59:41.543Z,16.22
2022-09-16T02:00:47.442Z,15.74
2022-09-16T02:02:04.954Z,15.74
2022-09-16T02:03:32.338Z,16.16
2022-09-16T02:04:42.613Z,16.74
2022-09-16T02:06:06.691Z,17.13
2022-09-16T02:07:12.980Z,17.49
2022-09-16T02:08:22.719Z,17.72
2022-09-16T02:09:34.898Z,17.90
2022-09-16T02:10:50.968Z,18.03
2022-09-16T02:11:58.551Z,18.15
2022-09-16T02:13:08.924Z,18.03
2022-09-16T02:14:20.030Z,17.55
2022-09-16T02:15:26.449Z,16.96
2022-09-16T02:16:55.095Z,16.42
2022-09-16T02:18:05.129Z,15.83
2022-09-16T02:19:15.720Z,15.53
2022-09-16T02:20:25.837Z,15.67
2022-09-16T02:21:33.382Z,16.11
2022-09-16T02:22:41.728Z,16.51
2022-09-16T02:23:59.519Z,16.89
2022-09-16T02:25:05.395Z,17.23
2022-09-16T02:26:12.479Z,17.45
2022-09-16T02:27:21.699Z,17.63
2022-09-16T02:28:30.100Z,17.79
2022-09-16T02:29:46.768Z,17.92
2022-09-16T02:30:55.465Z,18.00
2022-09-16T02:32:02.505Z,17.73
2022-09-16T02:33:09.699Z,17.24
2022-09-16T02:34:17.559Z,16.71
2022-09-16T02:35:22.028Z,16.20
2022-09-16T02:36:27.173Z,15.78
2022-09-16T02:37:50.235Z,15.43
2022-09-16T02:39:00.122Z,15.48
2022-09-16T02:40:10.542Z,15.93
2022-09-16T02:41:14.873Z,16.41
2022-09-16T02:42:17.521Z,16.77
2022-09-16T02:43:19.889Z,17.09
2022-09-16T02:44:21.766Z,17.31
2022-09-16T02:45:47.940Z,17.49
2022-09-16T02:47:04.530Z,17.73
2022-09-16T02:48:29.161Z,17.92
2022-09-16T02:49:54.111Z,18.03
2022-09-16T02:51:29.130Z,17.85
2022-09-16T02:52:47.043Z,17.09
2022-09-16T02:54:22.911Z,16.46
2022-09-16T02:55:54.805Z,15.78
2022-09-16T02:56:57.482Z,15.33
2022-09-16T02:57:59.338Z,15.46
2022-09-16T02:59:04.014Z,15.86
2022-09-16T03:00:06.900Z,16.31
2022-09-16T03:01:13.666Z,16.70
2022-09-16T03:02:15.452Z,16.99
2022-09-16T03:03:18.421Z,17.24
2022-09-16T03:04:20.547Z,17.47
2022-09-16T03:05:30.287Z,17.59
2022-09-16T03:06:36.053Z,17.71
2022-09-16T03:07:41.396Z,17.85
2022-09-16T03:08:45.247Z,17.92
2022-09-16T03:09:49.912Z,17.95
2022-09-16T03:10:53.880Z,17.66
2022-09-16T03:12:12.394Z,17.14
2022-09-16T03:13:36.524Z,16.49
2022-09-16T03:14:59.453Z,15.89
2022-09-16T03:16:17.338Z,15.39
2022-09-16T03:17:34.367Z,15.39
2022-09-16T03:18:58.354Z,15.82
2022-09-16T03:20:12.550Z,16.34
2022-09-16T03:21:23.069Z,16.75
2022-09-16T03:22:47.438Z,17.06
2022-09-16T03:23:56.272Z,17.33
2022-09-16T03:25:19.431Z,17.49
2022-09-16T03:26:43.202Z,17.63
2022-09-16T03:27:52.703Z,17.77
2022-09-16T03:29:12.557Z,17.83
2022-09-16T03:30:14.407Z,17.89
2022-09-16T03:31:28.899Z,17.62
2022-09-16T03:32:45.202Z,17.02
2022-09-16T03:34:07.853Z,16.41
2022-09-16T03:35:28.031Z,15.77
2022-09-16T03:36:44.563Z,15.29
2022-09-16T03:37:48.217Z,15.33
2022-09-16T03:38:51.565Z,15.68
2022-09-16T03:39:57.663Z,16.10
2022-09-16T03:40:59.474Z,16.53
2022-09-16T03:42:08.124Z,16.84
2022-09-16T03:43:15.998Z,17.14
2022-09-16T03:44:18.329Z,17.36
2022-09-16T03:45:22.079Z,17.54
2022-09-16T03:46:25.219Z,17.65
2022-09-16T03:47:26.868Z,17.72
2022-09-16T03:48:28.548Z,17.81
2022-09-16T03:49:30.469Z,17.83
2022-09-16T03:50:32.161Z,17.60
2022-09-16T03:51:33.809Z,17.15
2022-09-16T03:52:35.482Z,16.61
2022-09-16T03:53:37.085Z,16.10
2022-09-16T03:54:39.087Z,15.64
2022-09-16T03:55:40.829Z,15.26
2022-09-16T03:56:42.422Z,15.14
2022-09-16T03:57:44.073Z,15.37
2022-09-16T03:58:48.136Z,15.77
2022-09-16T03:59:49.765Z,16.18
2022-09-16T04:00:51.959Z,16.51
2022-09-16T04:01:54.039Z,16.81
2022-09-16T04:02:56.306Z,17.04
2022-09-16T04:03:57.963Z,17.22
2022-09-16T04:04:59.797Z,17.39
2022-09-16T04:06:01.634Z,17.52
2022-09-16T04:07:03.530Z,17.64
2022-09-16T04:08:05.128Z,17.75
2022-09-16T04:09:08.320Z,17.80
2022-09-16T04:10:12.455Z,17.62
2022-09-16T04:11:14.323Z,17.18
2022-09-16T04:12:16.031Z,16.69
2022-09-16T04:13:17.639Z,16.20
2022-09-16T04:14:20.285Z,15.76
2022-09-16T04:15:22.246Z,15.38
2022-09-16T04:16:24.099Z,15.17
2022-09-16T04:17:25.790Z,15.35
2022-09-16T04:18:27.905Z,15.76
2022-09-16T04:19:29.621Z,16.17
2022-09-16T04:20:31.234Z,16.55
2022-09-16T04:21:33.509Z,16.84
2022-09-16T04:22:35.263Z,17.10
2022-09-16T04:23:36.886Z,17.30
2022-09-16T04:24:38.495Z,17.47
2022-09-16T04:25:41.760Z,17.61
2022-09-16T04:26:43.762Z,17.73
2022-09-16T04:27:45.341Z,17.81
2022-09-16T04:28:47.994Z,17.72
2022-09-16T04:29:49.866Z,17.33
2022-09-16T04:30:52.167Z,16.82
2022-09-16T04:31:55.880Z,16.31
2022-09-16T04:32:57.535Z,15.85
2022-09-16T04:34:02.150Z,15.44
2022-09-16T04:35:03.935Z,15.22
2022-09-16T04:36:13.854Z,15.42
2022-09-16T04:37:15.767Z,15.87
2022-09-16T04:38:17.394Z,16.28
2022-09-16T04:39:19.367Z,16.62
2022-09-16T04:40:21.063Z,16.88
2022-09-16T04:41:27.098Z,17.09
2022-09-16T04:42:29.015Z,17.34
2022-09-16T04:43:31.121Z,17.50
2022-09-16T04:44:32.771Z,17.63
2022-09-16T04:45:34.363Z,17.75
2022-09-16T04:46:36.082Z,17.88
2022-09-16T04:47:37.807Z,17.95
2022-09-16T04:48:39.659Z,17.75
2022-09-16T04:49:41.338Z,17.32
2022-09-16T04:50:43.071Z,16.83
2022-09-16T04:51:44.698Z,16.38
2022-09-16T04:52:46.457Z,15.96
2022-09-16T04:53:49.501Z,15.57
2022-09-16T04:54:51.211Z,15.38
2022-09-16T04:55:52.854Z,15.56
2022-09-16T04:56:54.498Z,15.91
2022-09-16T04:57:56.190Z,16.29
2022-09-16T04:59:03.590Z,16.61
2022-09-16T05:00:05.879Z,16.89
2022-09-16T05:01:12.821Z,17.14
2022-09-16T05:02:14.551Z,17.38
2022-09-16T05:03:16.871Z,17.51
2022-09-16T05:04:18.661Z,17.58
2022-09-16T05:05:21.452Z,17.68
2022-09-16T05:06:26.282Z,17.77
2022-09-16T05:07:29.649Z,17.80
2022-09-16T05:08:33.148Z,17.66
2022-09-16T05:09:35.394Z,17.24
2022-09-16T05:10:37.002Z,16.71
2022-09-16T05:11:40.177Z,16.21
2022-09-16T05:12:41.789Z,15.78
2022-09-16T05:13:43.991Z,15.39
2022-09-16T05:14:45.586Z,15.17
2022-09-16T05:15:50.946Z,15.32
2022-09-16T05:16:53.799Z,15.74
2022-09-16T05:17:55.456Z,16.18
2022-09-16T05:19:00.166Z,16.56
2022-09-16T05:20:02.112Z,16.83
2022-09-16T05:21:06.666Z,17.01
2022-09-16T05:22:08.293Z,17.22
2022-09-16T05:23:10.062Z,17.42
2022-09-16T05:24:13.610Z,17.59
2022-09-16T05:25:15.352Z,17.67
2022-09-16T05:26:23.273Z,17.77
2022-09-16T05:27:27.940Z,17.55
2022-09-16T05:28:29.854Z,17.10
2022-09-16T05:29:31.472Z,16.61
2022-09-16T05:30:33.536Z,16.14
2022-09-16T05:31:38.962Z,15.73
2022-09-16T05:32:40.611Z,15.34
2022-09-16T05:33:44.901Z,15.20
2022-09-16T05:34:46.678Z,15.46
2022-09-16T05:35:48.401Z,15.89
2022-09-16T05:36:53.823Z,16.31
2022-09-16T05:37:55.459Z,16.68
2022-09-16T05:39:22.051Z,16.97
2022-09-16T05:40:19.823Z,17.29
2022-09-16T05:41:21.523Z,17.50
2022-09-16T05:42:23.303Z,17.64
2022-09-16T05:43:25.089Z,17.75
2022-09-16T05:44:28.751Z,17.88
2022-09-16T05:45:32.574Z,17.84
2022-09-16T05:46:35.036Z,17.42
2022-09-16T05:47:36.696Z,16.97
2022-09-16T05:48:38.278Z,16.51
2022-09-16T05:49:39.946Z,16.08
2022-09-16T05:50:41.601Z,15.70
2022-09-16T05:51:43.311Z,15.36
2022-09-16T05:52:44.943Z,15.33
2022-09-16T05:53:49.052Z,15.65
2022-09-16T05:54:51.083Z,16.10
2022-09-16T05:56:06.117Z,16.49
2022-09-16T05:57:07.714Z,16.94
2022-09-16T05:58:09.423Z,17.23
2022-09-16T05:59:12.482Z,17.41
2022-09-16T06:00:14.703Z,17.63
2022-09-16T06:01:19.567Z,17.76
2022-09-16T06:02:21.206Z,17.75
2022-09-16T06:03:22.865Z,17.46
2022-09-16T06:04:24.535Z,17.03
2022-09-16T06:05:26.144Z,16.55
2022-09-16T06:06:34.437Z,16.13
2022-09-16T06:07:36.037Z,15.70
2022-09-16T06:08:37.778Z,15.38
2022-09-16T06:09:39.370Z,15.18
2022-09-16T06:10:42.109Z,15.34
2022-09-16T06:11:47.375Z,15.77
2022-09-16T06:12:49.000Z,16.28
2022-09-16T06:13:56.137Z,16.70
2022-09-16T06:14:57.783Z,17.12
2022-09-16T06:16:00.570Z,17.45
2022-09-16T06:17:02.753Z,17.71
2022-09-16T06:18:06.543Z,17.94
2022-09-16T06:19:13.550Z,18.11
2022-09-16T06:20:16.137Z,18.18
2022-09-16T06:21:18.721Z,17.92
2022-09-16T06:22:20.334Z,17.48
2022-09-16T06:23:22.689Z,17.01
2022-09-16T06:24:24.439Z,16.58
2022-09-16T06:25:26.055Z,16.21
2022-09-16T06:26:28.450Z,15.89
2022-09-16T06:27:31.840Z,15.61
2022-09-16T06:28:33.953Z,15.40
2022-09-16T06:29:35.600Z,15.52
2022-09-16T06:30:38.279Z,15.93
2022-09-16T06:31:40.579Z,16.41
2022-09-16T06:32:42.241Z,16.89
2022-09-16T06:33:44.593Z,17.27
2022-09-16T06:34:46.511Z,17.60
2022-09-16T06:35:48.166Z,17.86
2022-09-16T06:36:49.967Z,18.05
2022-09-16T06:37:54.041Z,17.98
2022-09-16T06:38:55.876Z,17.61
2022-09-16T06:39:57.549Z,17.18
2022-09-16T06:41:00.930Z,16.77
2022-09-16T06:42:02.814Z,16.37
2022-09-16T06:43:12.206Z,16.00
2022-09-16T06:44:13.972Z,15.75
2022-09-16T06:45:15.577Z,15.52
2022-09-16T06:46:21.064Z,15.44
2022-09-16T06:47:22.788Z,15.75
2022-09-16T06:48:24.417Z,16.23
2022-09-16T06:49:26.375Z,16.74
2022-09-16T06:50:28.075Z,17.21
2022-09-16T06:51:31.387Z,17.63
2022-09-16T06:52:33.190Z,17.94
2022-09-16T06:53:34.935Z,18.11
2022-09-16T06:54:36.526Z,17.98
2022-09-16T06:55:38.166Z,17.62
2022-09-16T06:56:41.477Z,17.21
2022-09-16T06:57:43.427Z,16.83
2022-09-16T06:58:51.761Z,16.46
2022-09-16T06:59:53.410Z,16.08
2022-09-16T07:00:55.709Z,15.81
2022-09-16T07:01:57.469Z,15.57
2022-09-16T07:03:02.266Z,15.36
2022-09-16T07:04:10.961Z,15.18
2022-09-16T07:05:13.075Z,15.14
2022-09-16T07:06:16.680Z,15.48
2022-09-16T07:07:18.510Z,16.06
2022-09-16T07:08:20.182Z,16.60
2022-09-16T07:09:22.279Z,17.05
2022-09-16T07:10:25.224Z,17.46
2022-09-16T07:11:26.973Z,17.80
2022-09-16T07:12:28.993Z,17.88
2022-09-16T07:13:31.318Z,17.63
2022-09-16T07:14:32.943Z,17.27
2022-09-16T07:15:39.253Z,16.90
2022-09-16T07:16:52.803Z,16.49
2022-09-16T07:17:55.347Z,16.23
2022-09-16T07:19:01.136Z,16.01
2022-09-16T07:20:03.373Z,15.80
2022-09-16T07:21:07.790Z,15.66
2022-09-16T07:22:11.420Z,15.53
2022-09-16T07:23:13.038Z,15.45
2022-09-16T07:24:15.431Z,15.57
2022-09-16T07:25:17.315Z,16.04
2022-09-16T07:26:22.124Z,16.63
2022-09-16T07:27:23.794Z,17.23
2022-09-16T07:28:25.463Z,17.71
2022-09-16T07:29:27.581Z,18.09
2022-09-16T07:30:30.983Z,18.25
2022-09-16T07:31:36.988Z,18.07
2022-09-16T07:32:38.615Z,17.69
2022-09-16T07:33:47.672Z,17.33
2022-09-16T07:34:49.379Z,16.94
2022-09-16T07:35:51.211Z,16.63
2022-09-16T07:36:52.909Z,16.38
2022-09-16T07:37:54.850Z,16.13
2022-09-16T07:38:58.914Z,15.92
2022-09-16T07:40:00.583Z,15.74
2022-09-16T07:41:07.865Z,15.58
2022-09-16T07:42:09.764Z,15.43
2022-09-16T07:43:11.926Z,15.30
2022-09-16T07:44:16.313Z,15.19
2022-09-16T07:45:17.962Z,15.08
2022-09-16T07:46:20.818Z,15.01
2022-09-16T07:47:23.083Z,15.20
2022-09-16T07:48:25.242Z,15.70
2022-09-16T07:49:26.979Z,16.30
2022-09-16T07:50:28.627Z,16.86
2022-09-16T07:51:31.618Z,17.35
2022-09-16T07:52:33.241Z,17.78
2022-09-16T07:53:35.446Z,17.90
2022-09-16T07:54:37.352Z,17.70
2022-09-16T07:55:39.033Z,17.38
2022-09-16T07:56:42.551Z,17.03
2022-09-16T07:57:44.187Z,16.69
2022-09-16T07:58:47.469Z,16.40
2022-09-16T07:59:49.186Z,16.13
2022-09-16T08:00:50.893Z,15.91
2022-09-16T08:01:52.876Z,15.71
2022-09-16T08:02:57.248Z,15.53
2022-09-16T08:04:00.475Z,15.38
2022-09-16T08:05:02.200Z,15.26
2022-09-16T08:06:25.126Z,15.15
2022-09-16T08:07:26.817Z,15.02
2022-09-16T08:08:28.455Z,14.93
2022-09-16T08:09:41.163Z,14.85
2022-09-16T08:10:59.483Z,14.74
2022-09-16T08:12:04.550Z,14.69
2022-09-16T08:13:07.810Z,14.99
2022-09-16T08:14:09.403Z,15.59
2022-09-16T08:15:11.265Z,16.21
2022-09-16T08:16:19.379Z,16.81
2022-09-16T08:17:21.513Z,17.39
2022-09-16T08:18:23.130Z,17.82
2022-09-16T08:19:25.038Z,17.99
2022-09-16T08:20:28.220Z,17.82
2022-09-16T08:21:30.216Z,17.54
2022-09-16T08:22:32.025Z,17.26
2022-09-16T08:23:34.946Z,17.01
2022-09-16T08:24:36.662Z,16.77
2022-09-16T08:25:38.289Z,16.56
2022-09-16T08:26:40.386Z,16.38
2022-09-16T08:27:42.025Z,16.21
2022-09-16T08:29:04.931Z,16.06
2022-09-16T08:30:10.218Z,15.84
2022-09-16T08:31:12.661Z,15.69
2022-09-16T08:32:14.693Z,15.56
2022-09-16T08:33:20.998Z,15.42
2022-09-16T08:34:22.769Z,15.29
2022-09-16T08:35:25.598Z,15.19
2022-09-16T08:36:27.447Z,15.10
2022-09-16T08:37:29.128Z,15.05
2022-09-16T08:38:32.513Z,15.02
2022-09-16T08:39:34.477Z,14.98
2022-09-16T08:40:37.216Z,14.91
2022-09-16T08:41:52.607Z,14.85
2022-09-16T08:43:17.791Z,14.79
2022-09-16T08:44:38.816Z,14.72
2022-09-16T08:45:49.158Z,14.84
2022-09-16T08:46:59.477Z,15.41
2022-09-16T08:48:13.150Z,16.14
2022-09-16T08:49:44.024Z,16.89
2022-09-16T08:50:51.462Z,17.48
2022-09-16T08:51:55.562Z,17.41
2022-09-16T08:53:03.148Z,17.16
2022-09-16T08:54:27.349Z,16.86
2022-09-16T08:55:46.707Z,16.56
2022-09-16T08:56:49.737Z,16.35
2022-09-16T08:58:11.613Z,16.25
2022-09-16T08:59:20.402Z,16.15
2022-09-16T09:00:22.117Z,16.06
2022-09-16T09:01:29.895Z,15.99
2022-09-16T09:02:51.204Z,15.94
2022-09-16T09:03:54.208Z,15.87
2022-09-16T09:04:56.051Z,15.82
2022-09-16T09:06:00.154Z,15.77
2022-09-16T09:07:29.066Z,15.72
2022-09-16T09:08:44.409Z,15.64
2022-09-16T09:10:24.752Z,15.56
2022-09-16T09:11:43.726Z,15.48
2022-09-16T09:13:47.543Z,15.44
2022-09-16T09:15:11.946Z,15.42
2022-09-16T09:16:41.085Z,15.46
2022-09-16T09:18:00.501Z,15.52
2022-09-16T09:19:25.690Z,15.56
2022-09-16T09:20:30.045Z,15.55
2022-09-16T09:22:00.250Z,15.52
2022-09-16T09:23:29.759Z,15.49
2022-09-16T09:24:48.314Z,15.43
2022-09-16T09:26:03.777Z,15.38
2022-09-16T09:27:22.225Z,15.33
2022-09-16T09:29:01.054Z,15.27
2022-09-16T09:30:24.345Z,15.19
2022-09-16T09:31:34.838Z,15.11
2022-09-16T09:32:56.548Z,15.07
2022-09-16T09:34:29.232Z,15.00
2022-09-16T09:35:51.428Z,14.95
2022-09-16T09:37:05.867Z,14.96
2022-09-16T09:38:35.984Z,15.00
2022-09-16T09:39:54.052Z,15.51
2022-09-16T09:41:11.709Z,16.32
2022-09-16T09:42:29.637Z,17.14
2022-09-16T09:44:52.158Z,17.97
2022-09-16T09:46:04.725Z,17.78
2022-09-16T09:47:19.984Z,17.49
2022-09-16T09:48:45.174Z,17.24
2022-09-16T09:49:51.881Z,17.00
2022-09-16T09:50:53.885Z,16.88
2022-09-16T09:52:04.373Z,16.80
2022-09-16T09:53:12.263Z,16.72
2022-09-16T09:54:22.797Z,16.67
2022-09-16T09:55:31.482Z,16.60
2022-09-16T09:56:45.988Z,16.52
2022-09-16T09:58:05.185Z,16.44
2022-09-16T09:59:24.932Z,16.36
2022-09-16T10:00:26.684Z,16.31
2022-09-16T10:01:28.556Z,16.31
2022-09-16T10:02:30.345Z,16.33
2022-09-16T10:03:32.531Z,16.35
2022-09-16T10:04:39.194Z,16.38
2022-09-16T10:05:41.685Z,16.44
2022-09-16T10:06:46.098Z,16.48
2022-09-16T10:07:49.566Z,16.51
2022-09-16T10:08:54.156Z,16.51
2022-09-16T10:10:14.382Z,16.49
2022-09-16T10:11:22.954Z,16.45
2022-09-16T10:12:31.355Z,16.39
2022-09-16T10:13:33.169Z,16.32
2022-09-16T10:14:37.917Z,16.25
2022-09-16T10:15:40.599Z,16.16
2022-09-16T10:16:50.809Z,16.12
2022-09-16T10:17:53.867Z,16.09
2022-09-16T10:19:16.981Z,16.09
2022-09-16T10:20:35.062Z,16.10
2022-09-16T10:21:47.705Z,16.12
2022-09-16T10:23:20.509Z,16.17
2022-09-16T10:24:32.969Z,16.26
2022-09-16T10:25:35.384Z,16.35
2022-09-16T10:26:41.142Z,16.46
2022-09-16T10:27:42.820Z,16.54
2022-09-16T10:29:23.262Z,16.60
2022-09-16T10:30:25.468Z,16.73
2022-09-16T10:31:35.327Z,16.81
2022-09-16T10:32:48.391Z,16.90
2022-09-16T10:33:50.403Z,17.00
2022-09-16T10:34:52.443Z,17.09
2022-09-16T10:36:00.809Z,17.15
2022-09-16T10:37:12.799Z,17.22
2022-09-16T10:38:22.260Z,17.27
2022-09-16T10:39:26.774Z,17.32
2022-09-16T10:40:29.171Z,17.36
2022-09-16T10:41:42.395Z,17.39
2022-09-16T10:42:48.107Z,17.37
2022-09-16T10:44:07.322Z,17.36
2022-09-16T10:45:20.158Z,17.33
2022-09-16T10:46:22.078Z,17.35
2022-09-16T10:47:28.203Z,17.39
2022-09-16T10:48:34.324Z,17.47
2022-09-16T10:49:46.187Z,17.52
2022-09-16T10:50:58.618Z,17.55
2022-09-16T10:52:22.939Z,17.57
2022-09-16T10:53:30.757Z,17.62
2022-09-16T10:54:32.461Z,17.67
2022-09-16T10:55:38.672Z,17.73
2022-09-16T10:56:49.601Z,17.78
2022-09-16T10:57:53.196Z,17.83
2022-09-16T10:59:12.325Z,17.87
2022-09-16T11:00:21.331Z,17.91
2022-09-16T11:01:57.917Z,17.93
2022-09-16T11:03:15.044Z,18.01
2022-09-16T11:04:31.419Z,18.08
2022-09-16T11:05:47.829Z,18.14
2022-09-16T11:06:55.224Z,18.23
2022-09-16T11:08:08.666Z,18.32
2022-09-16T11:09:25.595Z,18.41
2022-09-16T11:10:56.057Z,18.50
2022-09-16T11:12:33.600Z,18.58
2022-09-16T11:13:58.044Z,18.67
2022-09-16T11:15:28.053Z,18.75
2022-09-16T11:16:29.716Z,18.87
2022-09-16T11:18:19.897Z,18.95
2022-09-16T11:20:03.750Z,19.06
2022-09-16T11:21:40.600Z,19.14
2022-09-16T11:23:16.321Z,19.26
2022-09-16T11:24:27.266Z,19.31
2022-09-16T11:25:38.412Z,19.32
2022-09-16T11:26:56.193Z,19.35
2022-09-16T11:28:00.805Z,19.38
2022-09-16T11:29:29.139Z,19.41
2022-09-16T11:30:40.925Z,19.39
2022-09-16T11:31:51.355Z,19.33
2022-09-16T11:33:37.438Z,19.23
2022-09-16T11:35:02.560Z,19.05
2022-09-16T11:36:54.910Z,18.90
2022-09-16T11:38:08.319Z,18.67
2022-09-16T11:39:27.971Z,18.51
2022-09-16T11:40:55.139Z,18.28
2022-09-16T11:42:04.810Z,18.11
2022-09-16T11:43:47.720Z,17.95
2022-09-16T11:45:19.946Z,17.72
2022-09-16T11:46:55.713Z,17.52
2022-09-16T11:48:15.710Z,17.34
2022-09-16T11:49:45.127Z,17.22
2022-09-16T11:50:58.282Z,17.10
2022-09-16T11:52:06.309Z,17.01
2022-09-16T11:53:29.586Z,16.94
2022-09-16T11:54:59.113Z,16.86
2022-09-16T11:56:11.407Z,16.77
2022-09-16T11:57:24.774Z,16.70
2022-09-16T11:58:45.295Z,16.63
2022-09-16T12:00:00.328Z,16.56
2022-09-16T12:01:14.123Z,16.50
2022-09-16T12:02:40.088Z,16.44
2022-09-16T12:03:58.701Z,16.40
2022-09-16T12:05:13.823Z,16.43
2022-09-16T12:06:20.558Z,16.47
2022-09-16T12:07:57.245Z,16.52
2022-09-16T12:09:12.358Z,16.53
2022-09-16T12:10:31.117Z,16.54
2022-09-16T12:11:45.849Z,16.53
2022-09-16T12:13:00.766Z,16.49
2022-09-16T12:14:18.823Z,16.46
2022-09-16T12:15:30.078Z,16.44
2022-09-16T12:16:39.510Z,16.44
2022-09-16T12:17:52.438Z,16.42
2022-09-16T12:19:02.182Z,16.39
2022-09-16T12:20:16.533Z,16.35
2022-09-16T12:21:30.037Z,16.33
2022-09-16T12:22:43.201Z,16.32
2022-09-16T12:23:59.616Z,16.32
2022-09-16T12:25:08.913Z,16.32
2022-09-16T12:26:17.889Z,16.32
2022-09-16T12:27:37.750Z,16.34
2022-09-16T12:28:46.274Z,16.37
2022-09-16T12:30:00.509Z,16.38
2022-09-16T12:31:23.777Z,16.39
2022-09-16T12:32:50.706Z,16.40
2022-09-16T12:34:18.509Z,16.39
2022-09-16T12:36:43.868Z,16.46
2022-09-16T12:37:51.501Z,16.59
2022-09-16T12:38:53.298Z,16.74
2022-09-16T12:39:55.408Z,16.88
2022-09-16T12:41:00.519Z,17.01
2022-09-16T12:42:12.444Z,17.18
2022-09-16T12:43:31.982Z,17.40
2022-09-16T12:45:08.206Z,17.67
2022-09-16T12:46:34.801Z,18.02
2022-09-16T12:47:52.073Z,18.34
2022-09-16T12:49:15.455Z,18.61
2022-09-16T12:50:27.816Z,18.85
2022-09-16T12:52:04.010Z,19.08
2022-09-16T12:53:32.453Z,19.33
2022-09-16T12:55:08.508Z,19.51
2022-09-16T12:56:29.523Z,19.70
2022-09-16T12:57:55.991Z,19.85
2022-09-16T12:59:22.009Z,20.00
2022-09-16T13:00:30.941Z,20.15
2022-09-16T13:01:35.408Z,20.24
2022-09-16T13:02:46.722Z,20.27
2022-09-16T13:04:03.316Z,20.25
2022-09-16T13:05:22.853Z,20.24
2022-09-16T13:06:34.356Z,20.28
2022-09-16T13:07:36.933Z,20.31
2022-09-16T13:08:38.782Z,20.33
2022-09-16T13:09:41.018Z,20.34
2022-09-16T13:11:19.288Z,20.35
2022-09-16T13:13:50.263Z,20.45
2022-09-16T13:14:56.912Z,20.51
2022-09-16T13:16:02.124Z,20.57
2022-09-16T13:17:04.196Z,20.61
2022-09-16T13:18:17.708Z,20.63
2022-09-16T13:19:35.247Z,20.60
2022-09-16T13:20:41.949Z,20.56
2022-09-16T13:21:45.695Z,20.46
2022-09-16T13:23:00.253Z,20.35
2022-09-16T13:24:14.919Z,20.18
2022-09-16T13:25:35.030Z,20.02
2022-09-16T13:26:45.425Z,19.88
2022-09-16T13:28:02.038Z,19.83
2022-09-16T13:29:03.874Z,19.84
2022-09-16T13:30:08.238Z,19.86
2022-09-16T13:31:18.679Z,19.92
2022-09-16T13:32:38.499Z,20.02
2022-09-16T13:34:01.886Z,20.15
2022-09-16T13:35:18.714Z,20.32
2022-09-16T13:36:20.476Z,20.53
2022-09-16T13:37:28.412Z,20.65
2022-09-16T13:38:39.221Z,20.76
2022-09-16T13:39:41.144Z,20.86
2022-09-16T13:41:00.779Z,20.95
2022-09-16T13:42:20.737Z,21.06
2022-09-16T13:43:29.390Z,21.15
2022-09-16T13:44:36.934Z,21.25
2022-09-16T13:45:42.750Z,21.37
2022-09-16T13:46:44.468Z,21.43
2022-09-16T13:47:49.736Z,21.53
2022-09-16T13:49:03.272Z,21.66
2022-09-16T13:50:25.497Z,21.82
2022-09-16T13:51:27.214Z,21.95
2022-09-16T13:52:36.054Z,21.97
2022-09-16T13:53:45.901Z,22.00
2022-09-16T13:56:37.507Z,22.03
2022-09-16T13:57:58.571Z,22.03
2022-09-16T13:59:27.711Z,22.02
2022-09-16T14:00:58.723Z,22.01
2022-09-16T14:02:37.477Z,22.06
2022-09-16T14:03:53.028Z,22.17
2022-09-16T14:05:14.610Z,22.25
2022-09-16T14:06:47.754Z,22.29
2022-09-16T14:08:27.017Z,22.23
2022-09-16T14:09:46.741Z,21.96
2022-09-16T14:11:09.085Z,21.71
2022-09-16T14:12:41.671Z,21.44
2022-09-16T14:14:04.813Z,21.16
2022-09-16T14:15:08.784Z,20.90
2022-09-16T14:16:22.979Z,20.67
2022-09-16T14:17:31.830Z,20.39
2022-09-16T14:18:35.287Z,20.12
2022-09-16T14:19:42.430Z,19.91
2022-09-16T14:21:04.915Z,19.69
2022-09-16T14:22:28.096Z,19.46
2022-09-16T14:23:32.546Z,19.27
2022-09-16T14:24:40.322Z,19.13
2022-09-16T14:25:42.055Z,18.92
2022-09-16T14:26:57.415Z,18.71
2022-09-16T14:28:19.009Z,18.46
2022-09-16T14:29:22.386Z,18.15
2022-09-16T14:30:24.563Z,17.92
2022-09-16T14:31:31.333Z,17.73
2022-09-16T14:32:36.734Z,17.56
2022-09-16T14:33:46.237Z,17.49
2022-09-16T14:34:52.651Z,17.46
2022-09-16T14:35:56.782Z,17.49
2022-09-16T14:36:58.990Z,17.52
2022-09-16T14:38:08.439Z,17.55
2022-09-16T14:39:22.309Z,17.51
2022-09-16T14:40:27.401Z,17.48
2022-09-16T14:41:37.263Z,17.44
2022-09-16T14:42:52.743Z,17.39
2022-09-16T14:44:00.368Z,17.30
2022-09-16T14:45:04.820Z,17.23
2022-09-16T14:46:08.457Z,17.16
2022-09-16T14:47:47.336Z,17.08
2022-09-16T14:48:50.587Z,16.96
2022-09-16T14:49:57.926Z,16.91
2022-09-16T14:51:02.560Z,16.85
2022-09-16T14:52:04.386Z,16.80
2022-09-16T14:53:26.864Z,16.76
2022-09-16T14:54:44.334Z,16.71
2022-09-16T14:55:49.854Z,16.70
2022-09-16T14:57:14.729Z,16.70
2022-09-16T14:58:17.491Z,16.69
2022-09-16T14:59:20.753Z,16.67
2022-09-16T15:00:24.150Z,16.67
2022-09-16T15:01:28.206Z,16.66
2022-09-16T15:02:54.339Z,16.65